Time;durP1;ratioP1;P1;durP2;ratioP2;P2;SDS_P1;SDS_P2;PMS_P1;PMS_P2;Temp;Humidity;BMP_temperature;BMP_pressure;BME280_temperature;BME280_humidity;BME280_pressure;Samples;Min_cycle;Max_cycle;Signal;HPM_P1;HPM_P2
2024/01/14 01:39:50;;;;;;;6.90;4.67;;;;;;;-9.14;100.00;92751.84;2091829;28;20506;-78
2024/01/14 01:40:52;;;;;;;8.57;5.70;;;;;;;-9.06;100.00;92751.09;2075891;28;20517;-77
2024/01/14 01:41:53;;;;;;;10.25;6.15;;;;;;;-9.13;100.00;92743.78;2086326;28;20913;-78
2024/01/14 01:42:55;;;;;;;9.43;5.87;;;;;;;-9.14;100.00;92736.31;2092741;28;20660;-78
2024/01/14 01:43:56;;;;;;;10.13;6.72;;;;;;;-9.24;100.00;92734.03;2112062;28;20949;-77
2024/01/14 01:44:57;;;;;;;10.73;6.47;;;;;;;-9.22;100.00;92744.81;2083472;28;20477;-78
2024/01/14 01:45:58;;;;;;;11.43;7.00;;;;;;;-9.12;100.00;92741.97;2108750;28;20452;-79
2024/01/14 01:47:00;;;;;;;10.57;6.37;;;;;;;-9.04;100.00;92743.81;2109294;27;20114;-78
2024/01/14 01:48:01;;;;;;;10.20;6.45;;;;;;;-9.05;100.00;92738.91;2106877;28;20122;-78
2024/01/14 01:49:03;;;;;;;9.80;6.85;;;;;;;-9.09;100.00;92743.16;2092291;28;20443;-78
2024/01/14 01:50:04;;;;;;;11.60;6.32;;;;;;;-9.08;100.00;92737.72;2097688;28;20478;-78
2024/01/14 01:51:06;;;;;;;8.98;6.07;;;;;;;-9.14;100.00;92738.91;2104018;28;20480;-78
2024/01/14 01:52:08;;;;;;;9.50;6.95;;;;;;;-9.20;100.00;92733.13;2089929;28;20477;-79
2024/01/14 01:53:09;;;;;;;8.80;5.97;;;;;;;-9.18;100.00;92740.56;2104133;27;20450;-78
2024/01/14 01:54:11;;;;;;;10.03;6.73;;;;;;;-9.32;100.00;92735.53;2107979;28;20461;-79
2024/01/14 01:55:12;;;;;;;9.32;6.55;;;;;;;-9.24;100.00;92724.44;2077968;28;20561;-77
2024/01/14 01:56:14;;;;;;;9.57;6.70;;;;;;;-9.19;100.00;92733.88;2104353;28;20841;-78
2024/01/14 01:57:17;;;;;;;9.68;6.75;;;;;;;-9.14;100.00;92731.13;2098066;28;20479;-78
2024/01/14 01:58:19;;;;;;;9.68;6.22;;;;;;;-9.24;100.00;92731.44;2111258;27;20464;-78
2024/01/14 01:59:21;;;;;;;9.15;6.30;;;;;;;-9.23;100.00;92725.94;2113116;28;20509;-78
2024/01/14 02:00:23;;;;;;;8.57;5.95;;;;;;;-9.21;100.00;92723.06;2100124;27;20579;-78
2024/01/14 02:01:24;;;;;;;10.95;7.10;;;;;;;-9.10;100.00;92726.13;2116890;27;20869;-79
2024/01/14 02:02:25;;;;;;;9.23;6.13;;;;;;;-9.19;100.00;92723.53;2111121;28;21092;-78
2024/01/14 02:03:27;;;;;;;9.73;6.38;;;;;;;-8.92;100.00;92714.72;2101929;27;20593;-77
2024/01/14 02:04:29;;;;;;;10.63;6.65;;;;;;;-8.91;100.00;92718.81;2109377;28;20461;-77
2024/01/14 02:05:34;;;;;;;11.18;6.97;;;;;;;-9.05;100.00;92713.78;2077403;28;20557;-78
2024/01/14 02:06:38;;;;;;;9.80;6.70;;;;;;;-9.11;100.00;92709.06;2104794;28;20470;-78
2024/01/14 02:07:39;;;;;;;9.18;6.10;;;;;;;-9.05;100.00;92713.78;2126281;27;20462;-78
2024/01/14 02:08:40;;;;;;;11.00;6.57;;;;;;;-9.12;100.00;92713.50;2094111;28;20776;-78
2024/01/14 02:09:41;;;;;;;9.05;6.53;;;;;;;-9.07;100.00;92710.00;2098774;28;20830;-78
2024/01/14 02:10:42;;;;;;;10.52;6.85;;;;;;;-9.11;100.00;92706.50;2093147;28;20027;-78
2024/01/14 02:11:43;;;;;;;7.93;5.60;;;;;;;-9.04;100.00;92709.38;2093726;28;20548;-77
2024/01/14 02:12:44;;;;;;;9.65;6.68;;;;;;;-9.05;100.00;92710.44;2112012;28;20035;-78
2024/01/14 02:13:46;;;;;;;8.23;5.80;;;;;;;-9.04;100.00;92701.59;2095587;27;20031;-79
2024/01/14 02:14:47;;;;;;;9.02;6.15;;;;;;;-9.08;100.00;92698.13;2112340;28;20459;-77
2024/01/14 02:15:48;;;;;;;8.65;5.93;;;;;;;-8.84;100.00;92700.25;2093764;28;21330;-79
2024/01/14 02:16:49;;;;;;;9.27;6.28;;;;;;;-8.62;100.00;92705.25;2102102;28;20024;-79
2024/01/14 02:17:50;;;;;;;9.40;6.95;;;;;;;-8.82;100.00;92703.28;2091766;28;20586;-78
2024/01/14 02:18:51;;;;;;;8.50;5.90;;;;;;;-8.91;100.00;92716.22;2088749;28;20699;-78
2024/01/14 02:19:52;;;;;;;8.80;5.90;;;;;;;-8.84;100.00;92702.84;2101088;28;20446;-77
2024/01/14 02:20:55;;;;;;;10.93;7.10;;;;;;;-9.01;100.00;92701.00;2110074;27;20036;-77
2024/01/14 02:22:07;;;;;;;10.68;6.65;;;;;;;-9.06;100.00;92707.09;2116174;27;20514;-78
2024/01/14 02:23:12;;;;;;;8.98;5.95;;;;;;;-9.09;100.00;92705.09;2108381;28;20446;-78
2024/01/14 02:25:45;;;;;;;8.00;4.93;;;;;;;-9.53;100.00;92701.69;2123499;27;20183;-79
2024/01/14 02:26:46;;;;;;;9.77;5.82;;;;;;;-9.54;100.00;92707.16;2120456;28;20791;-79
2024/01/14 02:27:47;;;;;;;9.07;6.35;;;;;;;-9.60;100.00;92698.03;2092692;28;20528;-78
2024/01/14 02:28:49;;;;;;;9.05;6.25;;;;;;;-9.64;100.00;92703.03;2089103;28;20023;-77
2024/01/14 02:29:51;;;;;;;9.60;6.70;;;;;;;-9.57;100.00;92705.16;2103322;28;20434;-77
2024/01/14 02:30:53;;;;;;;9.30;5.80;;;;;;;-9.41;100.00;92706.28;2099550;28;20959;-78
2024/01/14 02:31:55;;;;;;;12.02;6.78;;;;;;;-9.51;100.00;92706.56;2110734;28;20437;-77
2024/01/14 02:32:56;;;;;;;10.13;6.25;;;;;;;-9.52;100.00;92705.06;2089910;28;20461;-78
2024/01/14 02:33:56;;;;;;;9.88;6.47;;;;;;;-9.58;100.00;92701.81;2108242;27;20447;-77
2024/01/14 02:34:58;;;;;;;9.85;6.82;;;;;;;-9.50;100.00;92711.44;2120189;27;21302;-77
2024/01/14 02:35:58;;;;;;;8.93;6.38;;;;;;;-9.57;100.00;92705.94;2114328;27;20462;-77
2024/01/14 02:37:00;;;;;;;9.73;6.93;;;;;;;-9.70;100.00;92710.19;2122682;27;20457;-78
2024/01/14 02:38:01;;;;;;;9.57;6.32;;;;;;;-9.66;100.00;92705.94;2085325;28;20115;-79
2024/01/14 02:39:02;;;;;;;9.02;6.30;;;;;;;-9.71;100.00;92703.47;2111486;28;20973;-77
2024/01/14 02:40:03;;;;;;;10.07;6.60;;;;;;;-9.50;100.00;92711.44;2096418;28;20501;-78
2024/01/14 02:41:05;;;;;;;8.38;5.45;;;;;;;-9.40;100.00;92697.44;2100135;27;20024;-77
2024/01/14 02:42:06;;;;;;;12.10;7.07;;;;;;;-9.33;100.00;92702.19;2111581;28;21038;-77
2024/01/14 02:43:07;;;;;;;8.52;6.05;;;;;;;-9.41;100.00;92694.09;2096686;28;20107;-78
2024/01/14 02:44:09;;;;;;;8.68;5.85;;;;;;;-9.39;100.00;92701.59;2110923;28;20445;-77
2024/01/14 02:45:10;;;;;;;9.35;6.15;;;;;;;-9.31;100.00;92698.22;2101506;28;20038;-77
2024/01/14 02:46:11;;;;;;;8.68;5.72;;;;;;;-9.38;100.00;92696.09;2078082;28;20453;-76
2024/01/14 02:47:12;;;;;;;9.98;6.13;;;;;;;-9.45;100.00;92695.78;2095680;28;20942;-78
2024/01/14 02:48:13;;;;;;;7.28;5.40;;;;;;;-9.60;100.00;92692.84;2099081;28;20106;-77
2024/01/14 02:49:14;;;;;;;8.70;6.10;;;;;;;-9.51;100.00;92691.81;2113681;28;20085;-78
2024/01/14 02:50:15;;;;;;;10.52;6.65;;;;;;;-9.38;100.00;92693.50;2098646;28;20051;-76
2024/01/14 02:51:16;;;;;;;7.45;6.03;;;;;;;-9.34;100.00;92695.50;2099421;27;20068;-78
2024/01/14 02:52:17;;;;;;;8.95;6.25;;;;;;;-9.37;100.00;92691.69;2114740;28;20138;-77
2024/01/14 02:53:18;;;;;;;8.52;6.10;;;;;;;-9.41;100.00;92693.34;2092723;28;20934;-78
2024/01/14 02:54:19;;;;;;;7.50;5.47;;;;;;;-9.57;100.00;92685.25;2114019;28;20020;-77
2024/01/14 02:55:20;;;;;;;9.07;6.03;;;;;;;-9.42;100.00;92695.19;2094567;27;20035;-78
2024/01/14 02:56:20;;;;;;;7.93;6.05;;;;;;;-9.46;100.00;92686.50;2099639;27;20027;-78
2024/01/14 02:57:21;;;;;;;9.10;5.90;;;;;;;-9.44;100.00;92688.78;2119726;28;20746;-78
2024/01/14 02:58:23;;;;;;;7.18;5.63;;;;;;;-9.53;100.00;92688.75;2095307;28;20107;-78
2024/01/14 02:59:24;;;;;;;9.45;6.18;;;;;;;-9.65;100.00;92688.59;2111512;28;20551;-77
2024/01/14 03:00:26;;;;;;;10.32;6.18;;;;;;;-9.58;100.00;92694.06;2077115;28;20469;-77
2024/01/14 03:01:27;;;;;;;9.50;6.25;;;;;;;-9.58;100.00;92686.31;2094606;28;20032;-78
2024/01/14 03:02:28;;;;;;;7.95;5.57;;;;;;;-9.69;100.00;92688.41;2099503;28;20469;-77
2024/01/14 03:03:29;;;;;;;8.02;5.78;;;;;;;-9.67;100.00;92688.13;2099763;28;20573;-77
2024/01/14 03:04:30;;;;;;;7.53;5.60;;;;;;;-9.58;100.00;92682.97;2119267;27;20019;-77
2024/01/14 03:05:31;;;;;;;8.35;5.97;;;;;;;-9.48;100.00;92685.25;2103163;28;20552;-78
2024/01/14 03:06:32;;;;;;;8.07;5.72;;;;;;;-9.48;100.00;92682.66;2100240;28;20467;-77
2024/01/14 03:07:33;;;;;;;9.55;5.60;;;;;;;-9.51;100.00;92678.88;2089340;28;20470;-77
2024/01/14 03:08:34;;;;;;;7.63;5.53;;;;;;;-9.55;100.00;92674.63;2102099;28;20388;-77
2024/01/14 03:09:35;;;;;;;7.43;5.22;;;;;;;-9.52;100.00;92679.94;2103137;28;20031;-77
2024/01/14 03:10:36;;;;;;;7.32;5.20;;;;;;;-9.55;100.00;92677.94;2103452;28;20027;-78
2024/01/14 03:11:36;;;;;;;7.30;5.20;;;;;;;-9.55;100.00;92675.38;2104432;27;20016;-77
2024/01/14 03:12:37;;;;;;;8.25;5.25;;;;;;;-9.72;100.00;92681.25;2118327;28;20046;-78
2024/01/14 03:13:38;;;;;;;7.90;5.40;;;;;;;-9.63;100.00;92678.69;2091846;28;20035;-77
2024/01/14 03:14:39;;;;;;;7.05;5.55;;;;;;;-9.62;100.00;92669.88;2103350;28;20028;-77
2024/01/14 03:15:40;;;;;;;7.57;5.50;;;;;;;-9.71;100.00;92682.78;2090850;28;20457;-78
2024/01/14 03:16:43;;;;;;;7.03;5.57;;;;;;;-9.73;100.00;92673.81;2090570;28;20017;-77
2024/01/14 03:17:44;;;;;;;7.57;5.60;;;;;;;-9.64;100.00;92674.59;2088555;28;20378;-78
2024/01/14 03:18:45;;;;;;;7.00;5.00;;;;;;;-9.73;100.00;92671.22;2106006;27;20491;-79
2024/01/14 03:19:46;;;;;;;7.03;5.38;;;;;;;-9.67;100.00;92665.59;2104927;28;20410;-78
2024/01/14 03:20:47;;;;;;;7.15;5.07;;;;;;;-9.66;100.00;92664.56;2091952;28;20025;-77
2024/01/14 03:21:48;;;;;;;6.93;5.20;;;;;;;-9.63;100.00;92665.75;2110309;28;20027;-77
2024/01/14 03:22:49;;;;;;;8.20;5.80;;;;;;;-9.71;100.00;92662.09;2090242;28;20035;-78
2024/01/14 03:23:50;;;;;;;7.85;5.07;;;;;;;-9.66;100.00;92666.34;2094483;27;20523;-77
2024/01/14 03:24:51;;;;;;;8.50;5.13;;;;;;;-9.59;100.00;92658.94;2106059;28;20032;-78
2024/01/14 03:25:52;;;;;;;8.55;5.55;;;;;;;-9.62;100.00;92664.69;2094414;28;20139;-77
2024/01/14 03:26:53;;;;;;;5.53;4.53;;;;;;;-9.51;100.00;92657.44;2099250;28;20486;-78
2024/01/14 03:27:54;;;;;;;8.45;5.72;;;;;;;-9.63;100.00;92653.59;2078706;28;20029;-77
2024/01/14 03:28:55;;;;;;;8.27;5.25;;;;;;;-9.64;100.00;92656.50;2093518;28;20453;-77
2024/01/14 03:29:56;;;;;;;6.20;4.90;;;;;;;-9.68;100.00;92661.50;2098570;28;20464;-77
2024/01/14 03:30:57;;;;;;;7.35;5.20;;;;;;;-9.66;100.00;92656.00;2097690;28;20050;-78
2024/01/14 03:31:58;;;;;;;8.07;5.43;;;;;;;-9.55;100.00;92656.50;2104754;28;20031;-78
2024/01/14 03:32:59;;;;;;;6.35;4.68;;;;;;;-9.33;100.00;92653.03;2099419;28;20478;-78
2024/01/14 03:34:00;;;;;;;7.80;5.63;;;;;;;-9.47;100.00;92651.34;2106074;28;20031;-78
2024/01/14 03:35:02;;;;;;;6.82;5.40;;;;;;;-9.61;100.00;92658.47;2093134;28;20795;-78
2024/01/14 03:36:04;;;;;;;6.72;4.97;;;;;;;-9.62;100.00;92641.41;2091054;28;20388;-77
2024/01/14 03:37:05;;;;;;;6.75;5.22;;;;;;;-9.69;100.00;92648.88;2072496;28;20607;-78
2024/01/14 03:38:06;;;;;;;7.43;5.10;;;;;;;-9.72;100.00;92649.47;2082935;28;20454;-78
2024/01/14 03:39:07;;;;;;;8.25;5.43;;;;;;;-9.73;100.00;92648.72;2093620;28;20043;-77
2024/01/14 03:40:09;;;;;;;6.90;5.10;;;;;;;-9.74;100.00;92642.03;2072126;28;20064;-78
2024/01/14 03:41:11;;;;;;;7.22;5.28;;;;;;;-9.56;100.00;92644.66;2078869;28;22636;-78
2024/01/14 03:42:12;;;;;;;8.10;4.68;;;;;;;-9.60;100.00;92641.13;2094963;28;20560;-78
2024/01/14 03:43:13;;;;;;;7.35;4.93;;;;;;;-9.57;100.00;92640.50;2086078;28;20461;-77
2024/01/14 03:44:14;;;;;;;7.55;5.45;;;;;;;-9.60;100.00;92647.06;2099309;28;20550;-77
2024/01/14 03:45:15;;;;;;;8.50;5.30;;;;;;;-9.62;100.00;92636.25;2081944;28;20020;-78
2024/01/14 03:46:17;;;;;;;7.18;4.63;;;;;;;-9.63;100.00;92639.91;2069119;28;20033;-77
2024/01/14 03:47:18;;;;;;;6.47;5.10;;;;;;;-9.68;100.00;92637.47;2085599;28;20978;-78
2024/01/14 03:48:19;;;;;;;6.75;5.20;;;;;;;-9.65;100.00;92632.47;2077341;28;20028;-77
2024/01/14 03:49:19;;;;;;;7.13;5.18;;;;;;;-9.58;100.00;92644.94;2089809;28;20768;-77
2024/01/14 03:50:20;;;;;;;7.35;4.90;;;;;;;-9.63;100.00;92635.50;2079356;28;20490;-77
2024/01/14 03:51:21;;;;;;;6.57;4.88;;;;;;;-9.68;100.00;92633.06;2079530;28;20032;-77
2024/01/14 03:52:22;;;;;;;8.32;5.60;;;;;;;-9.66;100.00;92638.69;2092124;28;20036;-78
2024/01/14 03:53:23;;;;;;;6.70;4.95;;;;;;;-9.56;100.00;92631.72;2085070;28;20606;-78
2024/01/14 03:54:24;;;;;;;6.75;4.97;;;;;;;-9.55;100.00;92639.16;2109149;28;20394;-78
2024/01/14 03:55:25;;;;;;;6.75;4.65;;;;;;;-9.58;100.00;92633.81;2075944;28;20546;-78
2024/01/14 03:56:26;;;;;;;7.40;5.22;;;;;;;-9.67;100.00;92628.63;2088153;28;20025;-77
2024/01/14 03:57:27;;;;;;;7.90;5.05;;;;;;;-9.59;100.00;92627.88;2100518;28;20027;-77
2024/01/14 03:58:28;;;;;;;6.72;5.18;;;;;;;-9.63;100.00;92630.31;2074148;28;20604;-77
2024/01/14 03:59:29;;;;;;;6.47;4.50;;;;;;;-9.65;100.00;92626.53;2096847;28;20024;-77
2024/01/14 04:00:30;;;;;;;6.35;4.72;;;;;;;-9.76;100.00;92626.03;2094489;28;20430;-78
2024/01/14 04:01:31;;;;;;;6.72;4.80;;;;;;;-9.71;100.00;92618.13;2115076;27;20023;-78
2024/01/14 04:02:32;;;;;;;8.10;5.00;;;;;;;-9.57;100.00;92625.00;2092942;28;20555;-78
2024/01/14 04:03:33;;;;;;;6.32;4.75;;;;;;;-9.71;100.00;92617.38;2084978;28;20033;-79
2024/01/14 04:04:34;;;;;;;5.80;4.70;;;;;;;-9.61;100.00;92624.06;2111489;28;20026;-78
2024/01/14 04:05:34;;;;;;;6.85;5.10;;;;;;;-9.63;100.00;92619.22;2085548;28;20020;-77
2024/01/14 04:06:35;;;;;;;7.50;5.07;;;;;;;-9.71;100.00;92619.97;2102482;28;20481;-77
2024/01/14 04:07:37;;;;;;;7.20;5.40;;;;;;;-9.64;100.00;92615.88;2083187;28;20032;-78
2024/01/14 04:08:38;;;;;;;6.75;4.72;;;;;;;-9.65;100.00;92616.19;2086913;28;20478;-78
2024/01/14 04:09:39;;;;;;;6.35;4.70;;;;;;;-9.64;100.00;92623.63;2096643;28;20469;-78
2024/01/14 04:10:40;;;;;;;7.53;5.03;;;;;;;-9.71;100.00;92625.88;2086290;28;20484;-78
2024/01/14 04:11:42;;;;;;;6.20;4.70;;;;;;;-9.67;100.00;92620.88;2103981;28;20028;-78
2024/01/14 04:12:43;;;;;;;6.13;4.65;;;;;;;-9.63;100.00;92619.22;2071234;28;20083;-78
2024/01/14 04:13:44;;;;;;;7.63;5.35;;;;;;;-9.56;100.00;92611.03;2073567;28;21120;-77
2024/01/14 04:14:45;;;;;;;7.60;6.00;;;;;;;-9.52;100.00;92612.69;2098095;28;20030;-77
2024/01/14 04:15:45;;;;;;;6.75;5.20;;;;;;;-9.48;100.00;92603.28;2069940;28;20150;-77
2024/01/14 04:16:49;;;;;;;6.63;4.65;;;;;;;-9.37;100.00;92611.47;2092769;28;20032;-77
2024/01/14 04:17:50;;;;;;;7.70;5.32;;;;;;;-9.41;100.00;92607.97;2092701;28;20455;-77
2024/01/14 04:18:51;;;;;;;6.30;4.85;;;;;;;-9.42;100.00;92606.47;2083011;28;20309;-78
2024/01/14 04:19:52;;;;;;;6.47;4.60;;;;;;;-9.46;100.00;92614.06;2097095;28;20024;-78
2024/01/14 04:20:53;;;;;;;5.65;4.35;;;;;;;-9.52;100.00;92611.94;2095181;27;20464;-77
2024/01/14 04:21:54;;;;;;;5.68;4.75;;;;;;;-9.54;100.00;92603.72;2096249;28;20187;-77
2024/01/14 04:22:55;;;;;;;7.22;5.45;;;;;;;-9.43;100.00;92607.53;2078412;28;20108;-77
2024/01/14 04:23:56;;;;;;;6.30;4.85;;;;;;;-9.49;100.00;92606.13;2088118;28;20035;-77
2024/01/14 04:24:57;;;;;;;6.38;4.95;;;;;;;-9.38;100.00;92608.13;2101004;28;20034;-78
2024/01/14 04:25:58;;;;;;;6.60;5.40;;;;;;;-9.39;100.00;92606.63;2073867;28;20032;-77
2024/01/14 04:26:59;;;;;;;6.82;4.65;;;;;;;-9.47;100.00;92604.78;2099306;28;20495;-77
2024/01/14 04:28:01;;;;;;;6.97;5.00;;;;;;;-9.53;100.00;92600.81;2092286;28;20470;-77
2024/01/14 04:29:02;;;;;;;6.50;4.85;;;;;;;-9.40;100.00;92599.91;2086017;28;20032;-78
2024/01/14 04:30:05;;;;;;;6.05;5.03;;;;;;;-9.30;100.00;92595.50;2098969;28;21018;-77
2024/01/14 04:31:05;;;;;;;6.10;4.85;;;;;;;-9.49;100.00;92598.38;2075554;28;20613;-78
2024/01/14 04:32:07;;;;;;;5.90;4.82;;;;;;;-9.42;100.00;92590.94;2081162;28;20459;-77
2024/01/14 04:33:07;;;;;;;7.30;4.85;;;;;;;-9.47;100.00;92598.84;2099079;28;20531;-78
2024/01/14 04:34:08;;;;;;;6.63;4.97;;;;;;;-9.48;100.00;92597.31;2084561;28;20523;-78
2024/01/14 04:35:09;;;;;;;7.55;4.57;;;;;;;-9.56;100.00;92591.09;2096714;28;20016;-77
2024/01/14 04:36:11;;;;;;;6.32;4.43;;;;;;;-9.57;100.00;92594.72;2094366;28;20028;-78
2024/01/14 04:37:12;;;;;;;6.70;4.43;;;;;;;-9.51;100.00;92588.34;2098898;28;20465;-77
2024/01/14 04:38:13;;;;;;;5.35;4.32;;;;;;;-9.47;100.00;92593.69;2096575;28;20472;-78
2024/01/14 04:39:14;;;;;;;5.97;4.60;;;;;;;-9.42;100.00;92594.28;2093259;28;20034;-78
2024/01/14 04:40:15;;;;;;;6.38;4.25;;;;;;;-9.39;100.00;92592.94;2099203;28;20119;-77
2024/01/14 04:41:16;;;;;;;5.45;4.50;;;;;;;-9.37;100.00;92590.78;2094801;28;20488;-78
2024/01/14 04:42:17;;;;;;;5.60;4.15;;;;;;;-9.36;100.00;92596.72;2093812;28;20937;-78
2024/01/14 04:43:17;;;;;;;5.53;4.38;;;;;;;-9.41;100.00;92587.28;2092385;28;20040;-77
2024/01/14 04:44:18;;;;;;;5.85;4.50;;;;;;;-9.41;100.00;92588.03;2083814;28;20052;-77
2024/01/14 04:45:19;;;;;;;5.45;3.90;;;;;;;-9.40;100.00;92591.38;2097527;28;20484;-77
2024/01/14 04:46:21;;;;;;;5.57;4.00;;;;;;;-9.50;100.00;92586.53;2089965;28;20458;-78
2024/01/14 04:47:22;;;;;;;5.53;3.70;;;;;;;-9.39;100.00;92592.94;2107139;28;20024;-78
2024/01/14 04:48:22;;;;;;;6.30;4.47;;;;;;;-9.48;100.00;92586.97;2095828;28;20473;-78
2024/01/14 04:49:23;;;;;;;6.38;4.18;;;;;;;-9.36;100.00;92588.94;2095264;28;20016;-78
2024/01/14 04:50:24;;;;;;;4.78;4.28;;;;;;;-9.42;100.00;92588.34;2095775;28;20053;-77
2024/01/14 04:51:25;;;;;;;5.90;4.40;;;;;;;-9.45;100.00;92583.78;2066043;28;20059;-78
2024/01/14 04:52:26;;;;;;;5.32;4.65;;;;;;;-9.48;100.00;92586.97;2086828;28;20381;-78
2024/01/14 04:53:27;;;;;;;5.82;4.15;;;;;;;-9.49;100.00;92582.84;2076024;28;20051;-78
2024/01/14 04:54:28;;;;;;;5.18;4.05;;;;;;;-9.42;100.00;92585.75;2074904;28;20052;-78
2024/01/14 04:55:29;;;;;;;5.80;4.38;;;;;;;-9.45;100.00;92587.13;2086305;28;20999;-78
2024/01/14 04:56:31;;;;;;;6.45;4.55;;;;;;;-9.50;100.00;92586.53;2084208;28;20940;-78
2024/01/14 04:57:32;;;;;;;6.53;4.45;;;;;;;-9.36;100.00;92576.78;2105326;28;20024;-77
2024/01/14 04:58:32;;;;;;;6.75;4.05;;;;;;;-9.12;100.00;92581.50;2091516;28;20478;-78
2024/01/14 04:59:33;;;;;;;5.78;4.43;;;;;;;-9.16;100.00;92578.00;2083428;28;20582;-78
2024/01/14 05:00:35;;;;;;;5.82;4.18;;;;;;;-9.25;100.00;92580.59;2087308;28;20028;-78
2024/01/14 05:01:36;;;;;;;6.97;4.38;;;;;;;-9.43;100.00;92582.41;2090707;28;20024;-78
2024/01/14 05:02:37;;;;;;;5.93;4.35;;;;;;;-9.48;100.00;92579.19;2109324;28;20458;-77
2024/01/14 05:03:38;;;;;;;6.45;4.43;;;;;;;-9.42;100.00;92585.75;2094312;28;20427;-77
2024/01/14 05:04:39;;;;;;;5.50;4.38;;;;;;;-9.46;100.00;92583.03;2101366;28;20027;-77
2024/01/14 05:05:40;;;;;;;7.50;4.60;;;;;;;-9.59;100.00;92578.00;2103839;28;20468;-78
2024/01/14 05:06:42;;;;;;;6.10;4.30;;;;;;;-9.50;100.00;92582.09;2081720;28;20462;-77
2024/01/14 05:07:44;;;;;;;6.00;3.80;;;;;;;-9.39;100.00;92580.00;2103286;28;20252;-78
2024/01/14 05:08:44;;;;;;;6.43;4.68;;;;;;;-9.37;100.00;92570.09;2085619;28;20596;-78
2024/01/14 05:09:45;;;;;;;5.68;4.13;;;;;;;-9.40;100.00;92584.38;2096723;28;20911;-77
2024/01/14 05:10:46;;;;;;;6.40;4.40;;;;;;;-9.40;100.00;92581.03;2104048;28;20019;-77
2024/01/14 05:11:47;;;;;;;6.78;4.65;;;;;;;-9.48;100.00;92579.19;2096346;28;20024;-78
2024/01/14 05:12:49;;;;;;;6.53;4.50;;;;;;;-9.51;100.00;92575.41;2096858;28;20032;-78
2024/01/14 05:13:49;;;;;;;5.65;4.20;;;;;;;-9.48;100.00;92581.78;2083709;28;20457;-78
2024/01/14 05:14:50;;;;;;;4.93;4.20;;;;;;;-9.53;100.00;92587.13;2095302;28;20452;-78
2024/01/14 05:15:51;;;;;;;5.65;4.18;;;;;;;-9.54;100.00;92583.00;2100807;28;20044;-78
2024/01/14 05:16:52;;;;;;;5.88;4.45;;;;;;;-9.58;100.00;92579.50;2092219;28;20025;-78
2024/01/14 05:17:53;;;;;;;5.32;3.97;;;;;;;-9.65;100.00;92582.56;2091981;28;20094;-78
2024/01/14 05:18:55;;;;;;;5.65;3.88;;;;;;;-9.62;100.00;92579.34;2085203;28;20618;-78
2024/01/14 05:19:56;;;;;;;5.30;3.92;;;;;;;-9.65;100.00;92572.22;2089220;28;20354;-78
2024/01/14 05:20:57;;;;;;;6.30;4.30;;;;;;;-9.64;100.00;92584.84;2104219;28;20461;-78
2024/01/14 05:21:58;;;;;;;7.65;4.13;;;;;;;-9.65;100.00;92574.81;2092252;28;20024;-77
2024/01/14 05:22:59;;;;;;;5.40;4.50;;;;;;;-9.63;100.00;92575.25;2104374;28;20031;-78
2024/01/14 05:24:00;;;;;;;4.88;4.35;;;;;;;-9.69;100.00;92576.47;2100052;28;20488;-79
2024/01/14 05:25:01;;;;;;;6.28;4.65;;;;;;;-9.72;100.00;92570.06;2090996;28;20553;-78
2024/01/14 05:26:04;;;;;;;4.93;3.85;;;;;;;-9.70;100.00;92575.72;2108732;28;20420;-78
2024/01/14 05:27:05;;;;;;;4.75;3.60;;;;;;;-9.69;100.00;92574.66;2100170;28;20028;-78
2024/01/14 05:28:06;;;;;;;5.28;4.40;;;;;;;-9.65;100.00;92572.97;2101107;28;21036;-77
2024/01/14 05:29:07;;;;;;;4.57;4.10;;;;;;;-9.53;100.00;92569.00;2087064;28;20486;-78
2024/01/14 05:30:09;;;;;;;6.72;4.60;;;;;;;-9.61;100.00;92567.19;2103356;28;20138;-77
2024/01/14 05:31:10;;;;;;;5.47;3.95;;;;;;;-9.61;100.00;92570.56;2103290;28;21064;-78
2024/01/14 05:32:13;;;;;;;4.22;3.80;;;;;;;-9.57;100.00;92568.84;2103346;28;20472;-79
2024/01/14 05:33:14;;;;;;;4.65;3.42;;;;;;;-9.52;100.00;92560.97;2105588;28;20038;-77
2024/01/14 05:34:19;;;;;;;6.45;3.95;;;;;;;-9.40;100.00;92571.44;2096958;28;20462;-78
2024/01/14 05:35:19;;;;;;;4.40;3.70;;;;;;;-9.35;100.00;92564.59;2086161;28;20551;-78
2024/01/14 05:36:20;;;;;;;5.07;3.50;;;;;;;-9.41;100.00;92564.75;2104721;28;20455;-77
2024/01/14 05:37:23;;;;;;;5.85;3.40;;;;;;;-9.53;100.00;92567.19;2088440;28;20070;-77
2024/01/14 05:38:24;;;;;;;4.50;3.28;;;;;;;-9.51;100.00;92565.06;2069768;28;21352;-77
2024/01/14 05:39:25;;;;;;;4.63;3.55;;;;;;;-9.47;100.00;92567.81;2091842;28;20029;-78
2024/01/14 05:40:26;;;;;;;5.00;3.67;;;;;;;-9.54;100.00;92562.31;2088408;28;20443;-78
2024/01/14 05:41:27;;;;;;;5.07;3.42;;;;;;;-9.61;100.00;92570.56;2085748;28;20798;-78
2024/01/14 05:42:28;;;;;;;5.88;3.83;;;;;;;-9.58;100.00;92564.75;2099492;28;20028;-78
2024/01/14 05:43:29;;;;;;;4.90;4.20;;;;;;;-9.57;100.00;92568.09;2077400;28;20599;-77
2024/01/14 05:44:33;;;;;;;5.03;3.83;;;;;;;-9.63;100.00;92576.00;2091926;28;20477;-77
2024/01/14 05:45:34;;;;;;;6.93;3.55;;;;;;;-9.72;100.00;92575.25;2084758;28;20028;-77
2024/01/14 05:46:34;;;;;;;4.85;3.53;;;;;;;-9.70;100.00;92580.88;2087704;28;20827;-78
2024/01/14 05:47:36;;;;;;;5.38;3.90;;;;;;;-9.69;100.00;92577.22;2105457;28;20508;-77
2024/01/14 05:48:37;;;;;;;5.25;4.20;;;;;;;-9.68;100.00;92578.75;2100090;28;20896;-77
2024/01/14 05:49:38;;;;;;;4.55;3.50;;;;;;;-9.66;100.00;92566.28;2097934;28;20458;-78
2024/01/14 05:50:39;;;;;;;4.80;3.78;;;;;;;-9.73;100.00;92578.91;2091394;28;20043;-77
2024/01/14 05:51:39;;;;;;;6.10;4.78;;;;;;;-9.59;100.00;92576.16;2083118;28;20039;-77
2024/01/14 05:52:40;;;;;;;5.88;4.50;;;;;;;-9.55;100.00;92578.91;2082799;28;20039;-77
2024/01/14 05:53:41;;;;;;;5.28;4.68;;;;;;;-9.54;100.00;92572.66;2080647;28;20032;-78
2024/01/14 05:54:43;;;;;;;5.13;4.63;;;;;;;-9.70;100.00;92574.94;2100260;28;20345;-78
2024/01/14 05:55:44;;;;;;;4.88;4.10;;;;;;;-9.81;100.00;92579.66;2091969;28;20109;-78
2024/01/14 05:56:45;;;;;;;5.25;3.80;;;;;;;-9.76;100.00;92578.75;2077421;28;20848;-78
2024/01/14 05:57:46;;;;;;;4.80;4.00;;;;;;;-9.77;100.00;92579.81;2108089;28;20028;-78
2024/01/14 05:58:47;;;;;;;5.45;4.05;;;;;;;-9.81;100.00;92582.22;2097424;28;20409;-77
2024/01/14 05:59:48;;;;;;;5.22;3.80;;;;;;;-9.78;100.00;92573.13;2086175;28;20031;-78
2024/01/14 06:00:49;;;;;;;5.55;4.40;;;;;;;-9.78;100.00;92579.06;2104138;28;20085;-79
2024/01/14 06:01:50;;;;;;;4.50;3.60;;;;;;;-9.85;100.00;92583.91;2104522;27;20106;-77
2024/01/14 06:02:51;;;;;;;4.53;4.05;;;;;;;-9.81;100.00;92586.66;2096506;28;20024;-78
2024/01/14 06:03:51;;;;;;;5.05;3.65;;;;;;;-9.78;100.00;92578.28;2083661;28;20036;-77
2024/01/14 06:04:52;;;;;;;4.50;4.00;;;;;;;-9.84;100.00;92575.06;2097768;28;20039;-77
2024/01/14 06:05:53;;;;;;;5.57;3.95;;;;;;;-9.90;100.00;92581.47;2097007;28;20058;-77
2024/01/14 06:06:54;;;;;;;4.97;3.83;;;;;;;-9.97;100.00;92575.97;2091894;28;20047;-77
2024/01/14 06:08:02;;;;;;;4.75;3.97;;;;;;;-10.12;100.00;92574.56;2096625;28;20054;-79
2024/01/14 06:09:03;;;;;;;5.15;3.58;;;;;;;-10.10;100.00;92576.84;2088153;28;20465;-79
2024/01/14 06:10:04;;;;;;;5.25;3.55;;;;;;;-10.12;100.00;92568.66;2087990;28;20551;-79
2024/01/14 06:11:05;;;;;;;4.32;3.38;;;;;;;-10.15;100.00;92570.75;2088827;28;20052;-78
2024/01/14 06:12:06;;;;;;;4.90;3.60;;;;;;;-10.12;100.00;92566.81;2078496;28;21107;-78
2024/01/14 06:13:07;;;;;;;5.10;3.17;;;;;;;-10.20;100.00;92568.31;2096409;28;20054;-78
2024/01/14 06:14:08;;;;;;;4.28;3.38;;;;;;;-10.03;100.00;92569.41;2090602;28;20033;-78
2024/01/14 06:15:09;;;;;;;4.93;3.75;;;;;;;-10.06;100.00;92570.78;2100594;28;20659;-78
2024/01/14 06:16:11;;;;;;;4.10;3.65;;;;;;;-10.08;100.00;92572.16;2077370;28;20031;-78
2024/01/14 06:17:12;;;;;;;4.53;3.58;;;;;;;-10.05;100.00;92577.50;2069980;28;20501;-77
2024/01/14 06:18:13;;;;;;;4.22;3.38;;;;;;;-10.18;100.00;92579.13;2089332;28;20895;-78
2024/01/14 06:19:14;;;;;;;4.35;3.55;;;;;;;-10.10;100.00;92582.00;2061810;28;20029;-78
2024/01/14 06:20:15;;;;;;;4.75;3.15;;;;;;;-10.01;100.00;92575.78;2090219;28;20098;-78
2024/01/14 06:21:17;;;;;;;4.82;3.58;;;;;;;-10.12;100.00;92578.97;2079101;28;20036;-77
2024/01/14 06:22:19;;;;;;;5.13;3.65;;;;;;;-10.29;100.00;92575.31;2085437;28;20452;-77
2024/01/14 06:23:19;;;;;;;5.38;3.28;;;;;;;-10.35;100.00;92576.53;2071214;28;20024;-78
2024/01/14 06:24:20;;;;;;;4.60;3.42;;;;;;;-10.33;100.00;92578.78;2094809;28;20457;-78
2024/01/14 06:25:21;;;;;;;4.00;3.22;;;;;;;-10.30;100.00;92578.19;2108212;28;20040;-79